sensor_id;sensor_type;location;lat;lon;timestamp;P1;durP1;ratioP1;P2;durP2;ratioP2
20721;SDS011;10522;52.198;9.890;2024-02-21T00:01:39;33.40;;;9.90;;
20721;SDS011;10522;52.198;9.890;2024-02-21T00:04:05;16.93;;;7.60;;
20721;SDS011;10522;52.198;9.890;2024-02-21T00:06:31;22.83;;;9.07;;
20721;SDS011;10522;52.198;9.890;2024-02-21T00:08:57;24.27;;;8.80;;
20721;SDS011;10522;52.198;9.890;2024-02-21T00:11:23;24.57;;;10.00;;
20721;SDS011;10522;52.198;9.890;2024-02-21T00:13:48;19.20;;;9.00;;
20721;SDS011;10522;52.198;9.890;2024-02-21T00:16:15;21.10;;;9.40;;
20721;SDS011;10522;52.198;9.890;2024-02-21T00:18:41;18.43;;;8.80;;
20721;SDS011;10522;52.198;9.890;2024-02-21T00:21:06;25.73;;;10.70;;
20721;SDS011;10522;52.198;9.890;2024-02-21T00:23:32;25.53;;;9.87;;
20721;SDS011;10522;52.198;9.890;2024-02-21T00:25:57;24.77;;;10.13;;
20721;SDS011;10522;52.198;9.890;2024-02-21T00:28:23;25.10;;;10.93;;
20721;SDS011;10522;52.198;9.890;2024-02-21T00:30:48;27.70;;;11.73;;
20721;SDS011;10522;52.198;9.890;2024-02-21T00:33:16;17.37;;;7.30;;
20721;SDS011;10522;52.198;9.890;2024-02-21T00:35:42;26.03;;;10.20;;
20721;SDS011;10522;52.198;9.890;2024-02-21T00:38:07;24.60;;;10.77;;
20721;SDS011;10522;52.198;9.890;2024-02-21T00:40:33;23.60;;;11.00;;
20721;SDS011;10522;52.198;9.890;2024-02-21T00:43:00;28.90;;;11.37;;
20721;SDS011;10522;52.198;9.890;2024-02-21T00:45:25;26.67;;;10.73;;
20721;SDS011;10522;52.198;9.890;2024-02-21T00:47:51;26.53;;;9.70;;
20721;SDS011;10522;52.198;9.890;2024-02-21T00:50:17;20.93;;;9.50;;
20721;SDS011;10522;52.198;9.890;2024-02-21T00:52:42;29.97;;;10.87;;
20721;SDS011;10522;52.198;9.890;2024-02-21T00:55:09;22.73;;;10.53;;
20721;SDS011;10522;52.198;9.890;2024-02-21T00:57:34;19.63;;;9.40;;
20721;SDS011;10522;52.198;9.890;2024-02-21T01:00:01;27.77;;;12.23;;
20721;SDS011;10522;52.198;9.890;2024-02-21T01:02:27;22.17;;;11.00;;
20721;SDS011;10522;52.198;9.890;2024-02-21T01:04:53;21.43;;;10.43;;
20721;SDS011;10522;52.198;9.890;2024-02-21T01:07:18;25.17;;;11.33;;
20721;SDS011;10522;52.198;9.890;2024-02-21T01:09:44;21.57;;;12.17;;
20721;SDS011;10522;52.198;9.890;2024-02-21T01:12:09;21.30;;;11.27;;
20721;SDS011;10522;52.198;9.890;2024-02-21T01:14:35;22.10;;;10.67;;
20721;SDS011;10522;52.198;9.890;2024-02-21T01:17:01;18.07;;;8.43;;
20721;SDS011;10522;52.198;9.890;2024-02-21T01:19:26;29.40;;;12.47;;
20721;SDS011;10522;52.198;9.890;2024-02-21T01:21:52;20.73;;;11.03;;
20721;SDS011;10522;52.198;9.890;2024-02-21T01:24:17;27.70;;;12.47;;
20721;SDS011;10522;52.198;9.890;2024-02-21T01:26:43;22.10;;;9.80;;
20721;SDS011;10522;52.198;9.890;2024-02-21T01:29:08;23.20;;;11.17;;
20721;SDS011;10522;52.198;9.890;2024-02-21T01:31:34;29.93;;;10.60;;
20721;SDS011;10522;52.198;9.890;2024-02-21T01:34:00;23.63;;;11.33;;
20721;SDS011;10522;52.198;9.890;2024-02-21T01:36:25;23.77;;;11.07;;
20721;SDS011;10522;52.198;9.890;2024-02-21T01:38:51;19.93;;;11.37;;
20721;SDS011;10522;52.198;9.890;2024-02-21T01:41:16;24.23;;;11.40;;
20721;SDS011;10522;52.198;9.890;2024-02-21T01:43:42;24.93;;;10.53;;
20721;SDS011;10522;52.198;9.890;2024-02-21T01:46:08;22.90;;;11.37;;
20721;SDS011;10522;52.198;9.890;2024-02-21T01:48:33;24.60;;;11.17;;
20721;SDS011;10522;52.198;9.890;2024-02-21T01:51:00;21.07;;;11.13;;
20721;SDS011;10522;52.198;9.890;2024-02-21T01:53:29;24.53;;;11.27;;
20721;SDS011;10522;52.198;9.890;2024-02-21T01:55:57;28.07;;;11.70;;
20721;SDS011;10522;52.198;9.890;2024-02-21T01:58:23;24.80;;;11.37;;
20721;SDS011;10522;52.198;9.890;2024-02-21T02:00:49;21.23;;;11.13;;
20721;SDS011;10522;52.198;9.890;2024-02-21T02:03:15;21.53;;;10.63;;
20721;SDS011;10522;52.198;9.890;2024-02-21T02:05:48;21.37;;;11.07;;
20721;SDS011;10522;52.198;9.890;2024-02-21T02:08:19;25.30;;;12.50;;
20721;SDS011;10522;52.198;9.890;2024-02-21T02:10:47;27.57;;;12.17;;
20721;SDS011;10522;52.198;9.890;2024-02-21T02:13:12;29.67;;;12.27;;
20721;SDS011;10522;52.198;9.890;2024-02-21T02:18:04;26.17;;;13.07;;
20721;SDS011;10522;52.198;9.890;2024-02-21T02:20:30;28.27;;;13.00;;
20721;SDS011;10522;52.198;9.890;2024-02-21T02:22:56;25.37;;;12.40;;
20721;SDS011;10522;52.198;9.890;2024-02-21T02:25:24;28.80;;;13.03;;
20721;SDS011;10522;52.198;9.890;2024-02-21T02:27:50;26.67;;;12.70;;
20721;SDS011;10522;52.198;9.890;2024-02-21T02:30:16;27.00;;;12.50;;
20721;SDS011;10522;52.198;9.890;2024-02-21T02:32:45;32.77;;;12.67;;
20721;SDS011;10522;52.198;9.890;2024-02-21T02:35:11;20.83;;;11.70;;
20721;SDS011;10522;52.198;9.890;2024-02-21T02:37:37;26.33;;;13.47;;
20721;SDS011;10522;52.198;9.890;2024-02-21T02:40:04;25.37;;;11.83;;
20721;SDS011;10522;52.198;9.890;2024-02-21T02:42:31;20.03;;;10.07;;
20721;SDS011;10522;52.198;9.890;2024-02-21T02:44:57;22.10;;;11.90;;
20721;SDS011;10522;52.198;9.890;2024-02-21T02:47:22;28.50;;;13.97;;
20721;SDS011;10522;52.198;9.890;2024-02-21T02:49:48;26.57;;;13.03;;
20721;SDS011;10522;52.198;9.890;2024-02-21T02:52:16;25.10;;;11.97;;
20721;SDS011;10522;52.198;9.890;2024-02-21T02:54:43;27.83;;;13.30;;
20721;SDS011;10522;52.198;9.890;2024-02-21T02:57:09;25.93;;;12.57;;
20721;SDS011;10522;52.198;9.890;2024-02-21T02:59:34;24.80;;;12.93;;
20721;SDS011;10522;52.198;9.890;2024-02-21T03:02:00;23.53;;;12.03;;
20721;SDS011;10522;52.198;9.890;2024-02-21T03:04:26;28.87;;;13.37;;
20721;SDS011;10522;52.198;9.890;2024-02-21T03:06:51;25.20;;;13.10;;
20721;SDS011;10522;52.198;9.890;2024-02-21T03:09:17;28.93;;;12.30;;
20721;SDS011;10522;52.198;9.890;2024-02-21T03:11:42;29.20;;;13.20;;
20721;SDS011;10522;52.198;9.890;2024-02-21T03:14:09;24.20;;;12.07;;
20721;SDS011;10522;52.198;9.890;2024-02-21T03:16:35;24.00;;;12.83;;
20721;SDS011;10522;52.198;9.890;2024-02-21T03:19:01;27.10;;;13.60;;
20721;SDS011;10522;52.198;9.890;2024-02-21T03:21:26;28.47;;;14.07;;
20721;SDS011;10522;52.198;9.890;2024-02-21T03:23:52;29.97;;;13.90;;
20721;SDS011;10522;52.198;9.890;2024-02-21T03:26:18;27.13;;;12.20;;
20721;SDS011;10522;52.198;9.890;2024-02-21T03:28:43;26.53;;;12.73;;
20721;SDS011;10522;52.198;9.890;2024-02-21T03:31:11;28.70;;;13.43;;
20721;SDS011;10522;52.198;9.890;2024-02-21T03:33:39;22.87;;;13.03;;
20721;SDS011;10522;52.198;9.890;2024-02-21T03:36:05;24.73;;;13.70;;
20721;SDS011;10522;52.198;9.890;2024-02-21T03:38:31;23.03;;;12.17;;
20721;SDS011;10522;52.198;9.890;2024-02-21T03:40:56;27.67;;;13.50;;
20721;SDS011;10522;52.198;9.890;2024-02-21T03:43:22;22.47;;;12.93;;
20721;SDS011;10522;52.198;9.890;2024-02-21T03:45:47;26.60;;;13.83;;
20721;SDS011;10522;52.198;9.890;2024-02-21T03:48:13;29.03;;;12.63;;
20721;SDS011;10522;52.198;9.890;2024-02-21T03:50:39;27.73;;;12.30;;
20721;SDS011;10522;52.198;9.890;2024-02-21T03:53:04;23.30;;;12.93;;
20721;SDS011;10522;52.198;9.890;2024-02-21T03:55:30;29.20;;;13.23;;
20721;SDS011;10522;52.198;9.890;2024-02-21T03:57:55;19.70;;;12.90;;
20721;SDS011;10522;52.198;9.890;2024-02-21T04:00:21;32.10;;;12.70;;
20721;SDS011;10522;52.198;9.890;2024-02-21T04:02:46;25.20;;;12.53;;
20721;SDS011;10522;52.198;9.890;2024-02-21T04:05:15;25.43;;;14.17;;
20721;SDS011;10522;52.198;9.890;2024-02-21T04:07:41;32.27;;;13.17;;
20721;SDS011;10522;52.198;9.890;2024-02-21T04:10:07;20.57;;;12.73;;
20721;SDS011;10522;52.198;9.890;2024-02-21T04:12:33;23.37;;;12.20;;
20721;SDS011;10522;52.198;9.890;2024-02-21T04:14:59;26.43;;;13.10;;
20721;SDS011;10522;52.198;9.890;2024-02-21T04:17:25;23.80;;;11.00;;
20721;SDS011;10522;52.198;9.890;2024-02-21T04:19:50;20.53;;;10.03;;
20721;SDS011;10522;52.198;9.890;2024-02-21T04:22:26;19.70;;;12.10;;
20721;SDS011;10522;52.198;9.890;2024-02-21T04:24:51;22.57;;;11.63;;
20721;SDS011;10522;52.198;9.890;2024-02-21T04:27:17;23.60;;;12.37;;
20721;SDS011;10522;52.198;9.890;2024-02-21T04:29:42;25.50;;;13.07;;
20721;SDS011;10522;52.198;9.890;2024-02-21T04:32:08;28.50;;;13.27;;
20721;SDS011;10522;52.198;9.890;2024-02-21T04:34:34;21.53;;;11.33;;
20721;SDS011;10522;52.198;9.890;2024-02-21T04:37:00;22.00;;;12.67;;
20721;SDS011;10522;52.198;9.890;2024-02-21T04:39:25;16.73;;;8.87;;
20721;SDS011;10522;52.198;9.890;2024-02-21T04:41:51;17.77;;;10.40;;
20721;SDS011;10522;52.198;9.890;2024-02-21T04:44:17;20.53;;;11.00;;
20721;SDS011;10522;52.198;9.890;2024-02-21T04:46:46;21.83;;;11.50;;
20721;SDS011;10522;52.198;9.890;2024-02-21T04:49:12;21.80;;;12.20;;
20721;SDS011;10522;52.198;9.890;2024-02-21T04:51:37;22.27;;;11.07;;
20721;SDS011;10522;52.198;9.890;2024-02-21T04:54:05;24.50;;;11.53;;
20721;SDS011;10522;52.198;9.890;2024-02-21T04:56:31;22.37;;;11.93;;
20721;SDS011;10522;52.198;9.890;2024-02-21T04:58:57;23.73;;;12.70;;
20721;SDS011;10522;52.198;9.890;2024-02-21T05:01:22;25.37;;;12.33;;
20721;SDS011;10522;52.198;9.890;2024-02-21T05:03:48;27.47;;;11.87;;
20721;SDS011;10522;52.198;9.890;2024-02-21T05:06:13;26.10;;;11.60;;
20721;SDS011;10522;52.198;9.890;2024-02-21T05:08:39;23.53;;;11.37;;
20721;SDS011;10522;52.198;9.890;2024-02-21T05:11:05;28.80;;;13.63;;
20721;SDS011;10522;52.198;9.890;2024-02-21T05:13:32;20.87;;;11.60;;
20721;SDS011;10522;52.198;9.890;2024-02-21T05:15:57;22.80;;;10.93;;
20721;SDS011;10522;52.198;9.890;2024-02-21T05:18:26;17.90;;;8.33;;
20721;SDS011;10522;52.198;9.890;2024-02-21T05:20:52;16.30;;;9.80;;
20721;SDS011;10522;52.198;9.890;2024-02-21T05:23:17;16.00;;;10.03;;
20721;SDS011;10522;52.198;9.890;2024-02-21T05:25:43;23.80;;;11.47;;
20721;SDS011;10522;52.198;9.890;2024-02-21T05:28:09;27.97;;;11.60;;
20721;SDS011;10522;52.198;9.890;2024-02-21T05:30:34;22.70;;;11.13;;
20721;SDS011;10522;52.198;9.890;2024-02-21T05:33:04;31.07;;;12.20;;
20721;SDS011;10522;52.198;9.890;2024-02-21T05:35:30;30.30;;;13.00;;
20721;SDS011;10522;52.198;9.890;2024-02-21T05:37:56;24.97;;;12.80;;
20721;SDS011;10522;52.198;9.890;2024-02-21T05:40:21;25.73;;;13.80;;
20721;SDS011;10522;52.198;9.890;2024-02-21T05:42:47;23.57;;;12.83;;
20721;SDS011;10522;52.198;9.890;2024-02-21T05:45:13;24.70;;;11.57;;
20721;SDS011;10522;52.198;9.890;2024-02-21T05:47:40;18.30;;;8.73;;
20721;SDS011;10522;52.198;9.890;2024-02-21T05:50:06;25.90;;;13.77;;
20721;SDS011;10522;52.198;9.890;2024-02-21T05:52:32;23.30;;;13.17;;
20721;SDS011;10522;52.198;9.890;2024-02-21T05:54:58;24.67;;;12.33;;
20721;SDS011;10522;52.198;9.890;2024-02-21T05:57:23;26.17;;;11.40;;
20721;SDS011;10522;52.198;9.890;2024-02-21T05:59:49;21.97;;;11.60;;
20721;SDS011;10522;52.198;9.890;2024-02-21T06:02:14;22.23;;;11.10;;
20721;SDS011;10522;52.198;9.890;2024-02-21T06:04:40;24.83;;;12.17;;
20721;SDS011;10522;52.198;9.890;2024-02-21T06:07:07;25.07;;;12.63;;
20721;SDS011;10522;52.198;9.890;2024-02-21T06:09:33;18.27;;;9.67;;
20721;SDS011;10522;52.198;9.890;2024-02-21T06:11:59;23.70;;;11.60;;
20721;SDS011;10522;52.198;9.890;2024-02-21T06:14:25;21.23;;;10.77;;
20721;SDS011;10522;52.198;9.890;2024-02-21T06:16:50;20.87;;;10.13;;
20721;SDS011;10522;52.198;9.890;2024-02-21T06:19:16;26.27;;;12.40;;
20721;SDS011;10522;52.198;9.890;2024-02-21T06:21:41;22.27;;;11.50;;
20721;SDS011;10522;52.198;9.890;2024-02-21T06:24:07;18.67;;;11.20;;
20721;SDS011;10522;52.198;9.890;2024-02-21T06:26:32;23.40;;;12.10;;
20721;SDS011;10522;52.198;9.890;2024-02-21T06:28:58;20.67;;;10.83;;
20721;SDS011;10522;52.198;9.890;2024-02-21T06:31:27;23.10;;;12.10;;
20721;SDS011;10522;52.198;9.890;2024-02-21T06:33:53;19.20;;;10.53;;
20721;SDS011;10522;52.198;9.890;2024-02-21T06:36:18;21.07;;;11.33;;
20721;SDS011;10522;52.198;9.890;2024-02-21T06:38:44;21.97;;;11.47;;
20721;SDS011;10522;52.198;9.890;2024-02-21T06:41:16;22.93;;;11.57;;
20721;SDS011;10522;52.198;9.890;2024-02-21T06:43:43;22.50;;;11.90;;
20721;SDS011;10522;52.198;9.890;2024-02-21T06:46:09;21.30;;;10.63;;
20721;SDS011;10522;52.198;9.890;2024-02-21T06:48:35;16.47;;;10.63;;
20721;SDS011;10522;52.198;9.890;2024-02-21T06:51:01;26.73;;;10.77;;
20721;SDS011;10522;52.198;9.890;2024-02-21T06:53:26;20.73;;;9.37;;
20721;SDS011;10522;52.198;9.890;2024-02-21T06:55:52;18.83;;;11.57;;
20721;SDS011;10522;52.198;9.890;2024-02-21T06:58:17;20.30;;;11.27;;
20721;SDS011;10522;52.198;9.890;2024-02-21T07:00:43;27.07;;;13.47;;
20721;SDS011;10522;52.198;9.890;2024-02-21T07:03:09;19.00;;;10.13;;
20721;SDS011;10522;52.198;9.890;2024-02-21T07:05:34;18.67;;;9.93;;
20721;SDS011;10522;52.198;9.890;2024-02-21T07:08:00;19.13;;;11.07;;
20721;SDS011;10522;52.198;9.890;2024-02-21T07:10:26;19.07;;;10.20;;
20721;SDS011;10522;52.198;9.890;2024-02-21T07:12:53;21.80;;;10.57;;
20721;SDS011;10522;52.198;9.890;2024-02-21T07:15:20;17.37;;;9.37;;
20721;SDS011;10522;52.198;9.890;2024-02-21T07:17:45;20.10;;;9.47;;
20721;SDS011;10522;52.198;9.890;2024-02-21T07:20:11;21.30;;;10.20;;
20721;SDS011;10522;52.198;9.890;2024-02-21T07:22:37;18.47;;;9.57;;
20721;SDS011;10522;52.198;9.890;2024-02-21T07:25:03;18.07;;;8.77;;
20721;SDS011;10522;52.198;9.890;2024-02-21T07:27:29;20.20;;;9.63;;
20721;SDS011;10522;52.198;9.890;2024-02-21T07:29:56;20.37;;;9.53;;
20721;SDS011;10522;52.198;9.890;2024-02-21T07:32:22;21.60;;;9.87;;
20721;SDS011;10522;52.198;9.890;2024-02-21T07:34:47;20.00;;;8.50;;
20721;SDS011;10522;52.198;9.890;2024-02-21T07:37:13;21.53;;;10.67;;
20721;SDS011;10522;52.198;9.890;2024-02-21T07:39:39;18.00;;;10.23;;
20721;SDS011;10522;52.198;9.890;2024-02-21T07:42:04;14.90;;;9.23;;
20721;SDS011;10522;52.198;9.890;2024-02-21T07:44:31;17.03;;;8.97;;
20721;SDS011;10522;52.198;9.890;2024-02-21T07:46:57;15.60;;;9.43;;
20721;SDS011;10522;52.198;9.890;2024-02-21T07:49:23;15.00;;;8.57;;
20721;SDS011;10522;52.198;9.890;2024-02-21T07:51:49;20.67;;;11.73;;
20721;SDS011;10522;52.198;9.890;2024-02-21T07:54:15;17.47;;;10.40;;
20721;SDS011;10522;52.198;9.890;2024-02-21T07:56:41;13.87;;;7.77;;
20721;SDS011;10522;52.198;9.890;2024-02-21T07:59:06;23.00;;;10.77;;
20721;SDS011;10522;52.198;9.890;2024-02-21T08:01:32;21.03;;;10.60;;
20721;SDS011;10522;52.198;9.890;2024-02-21T08:03:58;21.43;;;10.87;;
20721;SDS011;10522;52.198;9.890;2024-02-21T08:06:24;21.13;;;10.40;;
20721;SDS011;10522;52.198;9.890;2024-02-21T08:08:50;22.53;;;9.67;;
20721;SDS011;10522;52.198;9.890;2024-02-21T08:11:15;19.37;;;10.83;;
20721;SDS011;10522;52.198;9.890;2024-02-21T08:13:41;23.50;;;10.00;;
20721;SDS011;10522;52.198;9.890;2024-02-21T08:16:06;22.40;;;10.60;;
20721;SDS011;10522;52.198;9.890;2024-02-21T08:18:32;21.20;;;10.50;;
20721;SDS011;10522;52.198;9.890;2024-02-21T08:21:01;18.13;;;9.40;;
20721;SDS011;10522;52.198;9.890;2024-02-21T08:23:28;17.67;;;9.10;;
20721;SDS011;10522;52.198;9.890;2024-02-21T08:25:53;15.17;;;8.77;;
20721;SDS011;10522;52.198;9.890;2024-02-21T08:28:19;18.77;;;9.50;;
20721;SDS011;10522;52.198;9.890;2024-02-21T08:30:45;23.33;;;9.40;;
20721;SDS011;10522;52.198;9.890;2024-02-21T08:33:13;15.53;;;8.50;;
20721;SDS011;10522;52.198;9.890;2024-02-21T08:35:40;19.40;;;9.10;;
20721;SDS011;10522;52.198;9.890;2024-02-21T08:38:05;19.23;;;8.90;;
20721;SDS011;10522;52.198;9.890;2024-02-21T08:40:31;16.73;;;8.27;;
20721;SDS011;10522;52.198;9.890;2024-02-21T08:42:56;19.97;;;8.10;;
20721;SDS011;10522;52.198;9.890;2024-02-21T08:45:22;13.57;;;6.73;;
20721;SDS011;10522;52.198;9.890;2024-02-21T08:47:48;14.57;;;6.67;;
20721;SDS011;10522;52.198;9.890;2024-02-21T08:50:13;16.03;;;6.43;;
20721;SDS011;10522;52.198;9.890;2024-02-21T08:52:39;16.70;;;8.17;;
20721;SDS011;10522;52.198;9.890;2024-02-21T08:55:04;15.70;;;7.23;;
20721;SDS011;10522;52.198;9.890;2024-02-21T08:57:31;13.27;;;6.60;;
20721;SDS011;10522;52.198;9.890;2024-02-21T09:00:02;15.40;;;7.30;;
20721;SDS011;10522;52.198;9.890;2024-02-21T09:02:39;12.43;;;5.83;;
20721;SDS011;10522;52.198;9.890;2024-02-21T09:05:06;20.87;;;7.80;;
20721;SDS011;10522;52.198;9.890;2024-02-21T09:07:31;17.07;;;6.17;;
20721;SDS011;10522;52.198;9.890;2024-02-21T09:09:57;12.40;;;7.10;;
20721;SDS011;10522;52.198;9.890;2024-02-21T09:12:23;12.57;;;5.63;;
20721;SDS011;10522;52.198;9.890;2024-02-21T09:14:49;13.47;;;7.07;;
20721;SDS011;10522;52.198;9.890;2024-02-21T09:17:15;15.60;;;5.93;;
20721;SDS011;10522;52.198;9.890;2024-02-21T09:19:45;14.40;;;6.43;;
20721;SDS011;10522;52.198;9.890;2024-02-21T09:22:14;12.67;;;5.67;;
20721;SDS011;10522;52.198;9.890;2024-02-21T09:24:39;15.07;;;4.50;;
20721;SDS011;10522;52.198;9.890;2024-02-21T09:27:05;19.40;;;6.23;;
20721;SDS011;10522;52.198;9.890;2024-02-21T09:29:31;10.00;;;5.17;;
20721;SDS011;10522;52.198;9.890;2024-02-21T09:31:58;17.17;;;6.17;;
20721;SDS011;10522;52.198;9.890;2024-02-21T09:34:24;14.53;;;6.60;;
20721;SDS011;10522;52.198;9.890;2024-02-21T09:36:49;9.97;;;5.70;;
20721;SDS011;10522;52.198;9.890;2024-02-21T09:39:15;13.00;;;6.17;;
20721;SDS011;10522;52.198;9.890;2024-02-21T09:41:45;12.13;;;5.60;;
20721;SDS011;10522;52.198;9.890;2024-02-21T09:44:17;16.37;;;6.10;;
20721;SDS011;10522;52.198;9.890;2024-02-21T09:47:03;14.57;;;5.63;;
20721;SDS011;10522;52.198;9.890;2024-02-21T09:49:34;8.93;;;4.53;;
20721;SDS011;10522;52.198;9.890;2024-02-21T09:52:06;9.73;;;4.83;;
20721;SDS011;10522;52.198;9.890;2024-02-21T09:54:33;6.53;;;4.50;;
20721;SDS011;10522;52.198;9.890;2024-02-21T09:56:59;11.90;;;5.00;;
20721;SDS011;10522;52.198;9.890;2024-02-21T09:59:26;8.50;;;4.20;;
20721;SDS011;10522;52.198;9.890;2024-02-21T10:01:53;6.73;;;4.33;;
20721;SDS011;10522;52.198;9.890;2024-02-21T10:04:20;10.10;;;4.20;;
20721;SDS011;10522;52.198;9.890;2024-02-21T10:06:46;9.10;;;4.30;;
20721;SDS011;10522;52.198;9.890;2024-02-21T10:09:21;10.10;;;3.77;;
20721;SDS011;10522;52.198;9.890;2024-02-21T10:11:52;6.43;;;3.73;;
20721;SDS011;10522;52.198;9.890;2024-02-21T10:14:19;10.40;;;3.97;;
20721;SDS011;10522;52.198;9.890;2024-02-21T10:16:46;11.10;;;3.60;;
20721;SDS011;10522;52.198;9.890;2024-02-21T10:19:19;13.20;;;3.73;;
20721;SDS011;10522;52.198;9.890;2024-02-21T10:21:58;9.20;;;3.90;;
20721;SDS011;10522;52.198;9.890;2024-02-21T10:24:28;13.30;;;3.77;;
20721;SDS011;10522;52.198;9.890;2024-02-21T10:26:59;8.77;;;3.40;;
20721;SDS011;10522;52.198;9.890;2024-02-21T10:29:28;9.30;;;4.00;;
20721;SDS011;10522;52.198;9.890;2024-02-21T10:32:05;11.60;;;3.70;;
20721;SDS011;10522;52.198;9.890;2024-02-21T10:34:36;11.03;;;4.13;;
20721;SDS011;10522;52.198;9.890;2024-02-21T10:39:29;6.03;;;2.97;;
20721;SDS011;10522;52.198;9.890;2024-02-21T10:41:59;10.00;;;3.53;;
20721;SDS011;10522;52.198;9.890;2024-02-21T10:44:29;7.70;;;3.17;;
20721;SDS011;10522;52.198;9.890;2024-02-21T10:46:56;7.47;;;3.23;;
20721;SDS011;10522;52.198;9.890;2024-02-21T10:49:23;8.33;;;3.43;;
20721;SDS011;10522;52.198;9.890;2024-02-21T10:51:50;8.43;;;2.80;;
20721;SDS011;10522;52.198;9.890;2024-02-21T10:54:30;6.67;;;2.80;;
20721;SDS011;10522;52.198;9.890;2024-02-21T10:57:08;7.27;;;2.60;;
20721;SDS011;10522;52.198;9.890;2024-02-21T10:59:36;10.07;;;3.30;;
20721;SDS011;10522;52.198;9.890;2024-02-21T11:02:03;7.80;;;2.73;;
20721;SDS011;10522;52.198;9.890;2024-02-21T11:04:29;5.87;;;2.40;;
20721;SDS011;10522;52.198;9.890;2024-02-21T11:06:56;6.70;;;2.77;;
20721;SDS011;10522;52.198;9.890;2024-02-21T11:09:29;12.83;;;3.07;;
20721;SDS011;10522;52.198;9.890;2024-02-21T11:11:58;4.57;;;2.63;;
20721;SDS011;10522;52.198;9.890;2024-02-21T11:14:29;6.03;;;2.40;;
20721;SDS011;10522;52.198;9.890;2024-02-21T11:16:57;9.43;;;2.70;;
20721;SDS011;10522;52.198;9.890;2024-02-21T11:19:27;6.87;;;2.63;;
20721;SDS011;10522;52.198;9.890;2024-02-21T11:21:54;10.47;;;2.80;;
20721;SDS011;10522;52.198;9.890;2024-02-21T11:24:30;5.77;;;2.67;;
20721;SDS011;10522;52.198;9.890;2024-02-21T11:27:13;6.37;;;2.93;;
20721;SDS011;10522;52.198;9.890;2024-02-21T11:29:49;6.60;;;2.70;;
20721;SDS011;10522;52.198;9.890;2024-02-21T11:32:23;7.70;;;3.00;;
20721;SDS011;10522;52.198;9.890;2024-02-21T11:37:26;4.60;;;2.93;;
20721;SDS011;10522;52.198;9.890;2024-02-21T11:39:53;6.87;;;2.77;;
20721;SDS011;10522;52.198;9.890;2024-02-21T11:42:22;7.00;;;2.60;;
20721;SDS011;10522;52.198;9.890;2024-02-21T11:44:49;5.60;;;3.00;;
20721;SDS011;10522;52.198;9.890;2024-02-21T11:47:15;8.37;;;2.73;;
20721;SDS011;10522;52.198;9.890;2024-02-21T11:49:46;5.37;;;2.90;;
20721;SDS011;10522;52.198;9.890;2024-02-21T11:52:14;10.27;;;3.97;;
20721;SDS011;10522;52.198;9.890;2024-02-21T11:54:40;6.83;;;3.33;;
20721;SDS011;10522;52.198;9.890;2024-02-21T11:57:06;7.43;;;4.77;;
20721;SDS011;10522;52.198;9.890;2024-02-21T11:59:32;11.63;;;4.83;;
20721;SDS011;10522;52.198;9.890;2024-02-21T12:02:01;12.07;;;6.13;;
20721;SDS011;10522;52.198;9.890;2024-02-21T12:04:30;15.17;;;6.70;;
20721;SDS011;10522;52.198;9.890;2024-02-21T12:06:57;12.17;;;7.43;;
20721;SDS011;10522;52.198;9.890;2024-02-21T12:09:23;12.60;;;7.57;;
20721;SDS011;10522;52.198;9.890;2024-02-21T12:12:00;12.33;;;6.97;;
20721;SDS011;10522;52.198;9.890;2024-02-21T12:14:28;11.17;;;6.57;;
20721;SDS011;10522;52.198;9.890;2024-02-21T12:16:55;14.17;;;6.73;;
20721;SDS011;10522;52.198;9.890;2024-02-21T12:19:21;13.73;;;8.13;;
20721;SDS011;10522;52.198;9.890;2024-02-21T12:21:48;15.33;;;8.17;;
20721;SDS011;10522;52.198;9.890;2024-02-21T12:24:23;11.77;;;6.30;;
20721;SDS011;10522;52.198;9.890;2024-02-21T12:26:50;14.13;;;7.60;;
20721;SDS011;10522;52.198;9.890;2024-02-21T12:29:17;13.20;;;7.43;;
20721;SDS011;10522;52.198;9.890;2024-02-21T12:31:43;17.17;;;8.87;;
20721;SDS011;10522;52.198;9.890;2024-02-21T12:34:10;12.90;;;7.30;;
20721;SDS011;10522;52.198;9.890;2024-02-21T12:36:45;16.47;;;7.80;;
20721;SDS011;10522;52.198;9.890;2024-02-21T12:39:12;14.77;;;8.00;;
20721;SDS011;10522;52.198;9.890;2024-02-21T12:41:38;11.97;;;6.60;;
20721;SDS011;10522;52.198;9.890;2024-02-21T12:44:05;14.83;;;8.27;;
20721;SDS011;10522;52.198;9.890;2024-02-21T12:46:33;17.60;;;7.93;;
20721;SDS011;10522;52.198;9.890;2024-02-21T12:49:00;18.20;;;9.00;;
20721;SDS011;10522;52.198;9.890;2024-02-21T12:51:25;14.27;;;7.10;;
20721;SDS011;10522;52.198;9.890;2024-02-21T12:53:51;12.13;;;6.73;;
20721;SDS011;10522;52.198;9.890;2024-02-21T12:56:17;11.70;;;7.00;;
20721;SDS011;10522;52.198;9.890;2024-02-21T12:58:42;14.73;;;6.67;;
20721;SDS011;10522;52.198;9.890;2024-02-21T13:01:08;12.37;;;6.70;;
20721;SDS011;10522;52.198;9.890;2024-02-21T13:03:34;12.90;;;7.37;;
20721;SDS011;10522;52.198;9.890;2024-02-21T13:05:59;12.77;;;6.43;;
20721;SDS011;10522;52.198;9.890;2024-02-21T13:08:25;12.83;;;6.73;;
20721;SDS011;10522;52.198;9.890;2024-02-21T13:10:51;10.23;;;6.07;;
20721;SDS011;10522;52.198;9.890;2024-02-21T13:13:16;10.03;;;6.30;;
20721;SDS011;10522;52.198;9.890;2024-02-21T13:15:42;11.40;;;5.73;;
20721;SDS011;10522;52.198;9.890;2024-02-21T13:18:08;8.10;;;5.13;;
20721;SDS011;10522;52.198;9.890;2024-02-21T13:20:34;11.03;;;5.33;;
20721;SDS011;10522;52.198;9.890;2024-02-21T13:23:00;7.60;;;4.43;;
20721;SDS011;10522;52.198;9.890;2024-02-21T13:25:26;10.50;;;4.40;;
20721;SDS011;10522;52.198;9.890;2024-02-21T13:27:51;8.33;;;3.50;;
20721;SDS011;10522;52.198;9.890;2024-02-21T13:30:17;9.90;;;4.43;;
20721;SDS011;10522;52.198;9.890;2024-02-21T13:32:43;13.40;;;4.73;;
20721;SDS011;10522;52.198;9.890;2024-02-21T13:35:11;8.80;;;3.27;;
20721;SDS011;10522;52.198;9.890;2024-02-21T13:37:37;7.80;;;3.37;;
20721;SDS011;10522;52.198;9.890;2024-02-21T13:40:04;8.13;;;3.50;;
20721;SDS011;10522;52.198;9.890;2024-02-21T13:42:30;8.47;;;3.13;;
20721;SDS011;10522;52.198;9.890;2024-02-21T13:44:55;8.03;;;3.17;;
20721;SDS011;10522;52.198;9.890;2024-02-21T13:47:21;8.73;;;3.53;;
20721;SDS011;10522;52.198;9.890;2024-02-21T13:49:47;8.70;;;3.87;;
20721;SDS011;10522;52.198;9.890;2024-02-21T13:52:13;6.77;;;3.33;;
20721;SDS011;10522;52.198;9.890;2024-02-21T13:54:39;12.20;;;3.43;;
20721;SDS011;10522;52.198;9.890;2024-02-21T13:57:05;7.97;;;3.23;;
20721;SDS011;10522;52.198;9.890;2024-02-21T13:59:30;6.40;;;3.53;;
20721;SDS011;10522;52.198;9.890;2024-02-21T14:01:58;7.53;;;3.20;;
20721;SDS011;10522;52.198;9.890;2024-02-21T14:04:24;7.97;;;3.37;;
20721;SDS011;10522;52.198;9.890;2024-02-21T14:06:50;5.77;;;3.03;;
20721;SDS011;10522;52.198;9.890;2024-02-21T14:09:16;8.27;;;3.23;;
20721;SDS011;10522;52.198;9.890;2024-02-21T14:11:41;9.53;;;3.53;;
20721;SDS011;10522;52.198;9.890;2024-02-21T14:14:07;9.13;;;3.23;;
20721;SDS011;10522;52.198;9.890;2024-02-21T14:16:33;11.87;;;2.97;;
20721;SDS011;10522;52.198;9.890;2024-02-21T14:18:58;10.57;;;2.97;;
20721;SDS011;10522;52.198;9.890;2024-02-21T14:21:24;8.90;;;3.17;;
20721;SDS011;10522;52.198;9.890;2024-02-21T14:23:50;8.90;;;2.53;;
20721;SDS011;10522;52.198;9.890;2024-02-21T14:26:17;6.87;;;2.70;;
20721;SDS011;10522;52.198;9.890;2024-02-21T14:28:43;6.20;;;3.03;;
20721;SDS011;10522;52.198;9.890;2024-02-21T14:31:08;6.87;;;2.40;;
20721;SDS011;10522;52.198;9.890;2024-02-21T14:33:35;8.63;;;2.93;;
20721;SDS011;10522;52.198;9.890;2024-02-21T14:36:01;8.30;;;3.27;;